KOFK/OFK METAR and TAF weather

Enter ICAO airport designator
Station Type Date Time Source
KOFK METAR 2022/01/23 11:56 UTC NOAA

KOFK 231156Z AUTO 01014KT 10SM OVC010 M08/M11 A3014 RMK AO2 SLP224 60000 T10781111 10039 21078 51023


Station Type Date Time Source
KOFK Decoded METAR 2022/01/23 11:56 UTC NOAA

KARL STEFAN MEMORIAL AIRPORT, NE, United States (KOFK) 41-59N 097-26W 470M
Jan 23, 2022 - 06:56 AM EST / 2022.01.23 1156 UTC
Wind: from the N (010 degrees) at 16 MPH (14 KT):0
Visibility: 10 mile(s):0
Sky conditions: overcast
Temperature: 18.0 F (-7.8 C)
Windchill: 3 F (-16 C):1
Dew Point: 12.0 F (-11.1 C)
Relative Humidity: 77%
Pressure (altimeter): 30.14 in. Hg (1020 hPa)
Pressure tendency: 0.07 inches (2.3 hPa) higher than three hours ago
ob: KOFK 231156Z AUTO 01014KT 10SM OVC010 M08/M11 A3014 RMK AO2 SLP224 60000 T10781111 10039 21078 51023
cycle: 12

Station Type Date Time Source
KOFK TAF 2022/01/23 12:22 UTC NOAA

TAF KOFK 231120Z 2312/2412 36013KT P6SM BKN009
TEMPO 2312/2314 BKN012
FM231600 VRB06KT P6SM BKN050
FM240200 24009KT P6SM SCT250 WS020/30040KT
FM240800 28008KT P6SM BKN090

Example: see airport list